Contoocook, NH

1:16 AM EDT on August 28, 2014 (GMT -0400)
Laconia Municipal | Change Station
CLOSE
Current Station
Airport
Location: Laconia,
Elevation: 545 ft
Nearby Weather Stations

Elev 545 ft 43.57 °N, 71.42 °W | Updated 41 minutes ago

Partly Cloudy
Partly Cloudy
66 °F
Feels Like 66 °F
N
0
Wind Variable Wind from North

Today
High -- | Low -- °F
--% Chance of Precip.
Yesterday
High -- | Low -- °F
Precip. -- in
6:06 AM 7:28 PM
Waxing Crescent, 6% visible
Pressure 29.86 in
Visibility 10.0 miles
Clouds Few 5500 ft
Dew Point 61 °F
Humidity 83%
Rainfall 0.00 in
Snow Depth Not available.
UV 0 out of 12
Pollen 8.10 out of 12
Ozone Good
Flu Activity Not available.
METAR KLCI 280435Z AUTO 00000KT 10SM FEW055 19/16 A2986 RMK AO1

More Conditions Fewer Conditions

Pressure 29.86 in
Visibility 10.0 miles
Clouds Few 5500 ft
Dew Point 61 °F
Humidity 83%
Rainfall 0.00 in
Snow Depth Not available.
UV 0 out of 12
Pollen 8.10 out of 12
Ozone Good
Flu Activity Not available.
METAR KLCI 280435Z AUTO 00000KT 10SM FEW055 19/16 A2986 RMK AO1

More Conditions Fewer Conditions

10-Day Weather Forecast

Almanac

Astronomy

Aug. 28, 2014 Rise Set
Actual Time 6:06 AM EDT 7:28 PM EDT
Civil Twilight 5:36 AM EDT 7:58 PM EDT
Nautical Twilight 5:01 AM EDT 8:33 PM EDT
Astronomical Twilight 4:23 AM EDT 9:11 PM EDT
Moon 9:01 AM EDT 8:44 PM EDT
Length of Visible Light 14h 21m
Length of Day
13h 22m
Tomorrow will be 2m 48s shorter.
Waxing Crescent, 6% of the Moon is Illuminated
Today
Waxing Crescent
Sep 2
First Quarter
Sep 8
Full
Sep 15
Last Quarter
Sep 24
New

Today's Extremes

State Highs State Lows

Community

WunderPhotos

Upload Photos

1,747,908 photos uploaded!

Nearby

Air Quality

  Air Quality AQ Index Pollutant
Yesterday Good
OZONE
Current Good
OZONE
Wednesday Good
PM2.5
Wednesday Good
OZONE
Thursday Good
PM2.5
Thursday Good
OZONE

Snow Depth

Station Depth Elevation
No new snow has been reported.

Earthquake Activity

City Distance Mag. Time & Date
No recent earthquake activity has been reported nearby.
Minimum magnitude displayed is 2.5.

Coastal Water Temperatures

Place Temperature
No Stations Reporting

Nearby Weather Stations